Time;durP1;ratioP1;P1;durP2;ratioP2;P2;SDS_P1;SDS_P2;PMS_P1;PMS_P2;Temp;Humidity;BMP_temperature;BMP_pressure;BME280_temperature;BME280_humidity;BME280_pressure;Samples;Min_cycle;Max_cycle;Signal;HPM_P1;HPM_P2
2023/08/24 00:01:45;;;;;;;;;;;;;;;;;;5052805;28;20025;-60
2023/08/24 00:04:11;;;;;;;;;;;;;;;;;;5046752;28;20357;-60
2023/08/24 00:06:38;;;;;;;;;;;;;;;;;;5034769;28;19975;-60
2023/08/24 00:09:05;;;;;;;;;;;;;;;;;;5025018;28;19921;-60
2023/08/24 00:11:31;;;;;;;;;;;;;;;;;;5050747;28;19920;-60
2023/08/24 00:13:57;;;;;;;;;;;;;;;;;;5049803;28;20711;-60
2023/08/24 00:16:23;;;;;;;;;;;;;;;;;;5052251;28;19968;-60
2023/08/24 00:18:49;;;;;;;;;;;;;;;;;;5052540;28;19921;-60
2023/08/24 00:21:22;;;;;;;;;;;;;;;;;;5035630;28;20422;-60
2023/08/24 00:23:48;;;;;;;;;;;;;;;;;;5040733;28;19924;-59
2023/08/24 00:26:16;;;;;;;;;;;;;;;;;;5037121;28;19921;-60
2023/08/24 00:28:42;;;;;;;;;;;;;;;;;;5050998;28;19924;-60
2023/08/24 00:31:08;;;;;;;;;;;;;;;;;;5048822;28;19975;-60
2023/08/24 00:33:34;;;;;;;;;;;;;;;;;;5047171;28;19987;-59
2023/08/24 00:36:00;;;;;;;;;;;;;;;;;;5044162;28;19956;-60
2023/08/24 00:38:26;;;;;;;;;;;;;;;;;;5054589;28;19925;-59
2023/08/24 00:40:53;;;;;;;;;;;;;;;;;;5038451;28;19925;-59
2023/08/24 00:43:23;;;;;;;;;;;;;;;;;;5016956;28;20363;-59
2023/08/24 00:45:49;;;;;;;;;;;;;;;;;;5052636;28;19986;-60
2023/08/24 00:48:15;;;;;;;;;;;;;;;;;;5051207;28;20919;-60
2023/08/24 00:50:41;;;;;;;;;;;;;;;;;;5034854;28;19921;-59
2023/08/24 00:53:07;;;;;;;;;;;;;;;;;;5038049;28;19928;-60
2023/08/24 00:55:33;;;;;;;;;;;;;;;;;;5064820;28;19963;-60
2023/08/24 00:57:58;;;;;;;;;;;;;;;;;;5056601;28;19925;-60
2023/08/24 01:00:24;;;;;;;;;;;;;;;;;;5053830;28;20309;-60
2023/08/24 01:02:50;;;;;;;;;;;;;;;;;;5041248;28;19925;-60
2023/08/24 01:05:16;;;;;;;;;;;;;;;;;;5037869;28;19925;-60
2023/08/24 01:07:42;;;;;;;;;;;;;;;;;;5038006;28;19925;-60
2023/08/24 01:10:08;;;;;;;;;;;;;;;;;;5052103;28;20054;-60
2023/08/24 01:12:34;;;;;;;;;;;;;;;;;;5031374;28;19920;-60
2023/08/24 01:15:00;;;;;;;;;;;;;;;;;;5052114;28;19932;-60
2023/08/24 01:17:28;;;;;;;;;;;;;;;;;;5048748;28;20933;-60
2023/08/24 01:19:54;;;;;;;;;;;;;;;;;;5047649;28;19921;-60
2023/08/24 01:22:20;;;;;;;;;;;;;;;;;;5051036;28;20354;-60
2023/08/24 01:24:46;;;;;;;;;;;;;;;;;;5045050;28;19932;-60
2023/08/24 01:27:12;;;;;;;;;;;;;;;;;;5050467;28;20030;-60
2023/08/24 01:29:40;;;;;;;;;;;;;;;;;;5016997;28;20373;-61
2023/08/24 01:32:06;;;;;;;;;;;;;;;;;;5051055;28;19927;-61
2023/08/24 01:34:31;;;;;;;;;;;;;;;;;;5027442;28;19925;-61
2023/08/24 01:36:57;;;;;;;;;;;;;;;;;;5052044;28;20343;-60
2023/08/24 01:39:24;;;;;;;;;;;;;;;;;;5042760;28;19968;-61
2023/08/24 01:41:50;;;;;;;;;;;;;;;;;;5046886;28;19943;-60
2023/08/24 01:44:15;;;;;;;;;;;;;;;;;;5050049;28;19928;-60
2023/08/24 01:46:41;;;;;;;;;;;;;;;;;;5047302;28;20775;-60
2023/08/24 01:49:07;;;;;;;;;;;;;;;;;;5050362;28;20023;-60
2023/08/24 01:51:33;;;;;;;;;;;;;;;;;;5053983;28;19921;-60
2023/08/24 01:53:59;;;;;;;;;;;;;;;;;;5055410;28;19928;-60
2023/08/24 01:56:25;;;;;;;;;;;;;;;;;;5047889;28;19956;-60
2023/08/24 01:58:51;;;;;;;;;;;;;;;;;;5056914;28;20423;-60
2023/08/24 02:01:17;;;;;;;;;;;;;;;;;;5044805;28;19964;-60
2023/08/24 02:03:43;;;;;;;;;;;;;;;;;;5056291;28;19924;-60
2023/08/24 02:06:09;;;;;;;;;;;;;;;;;;5044613;28;20335;-60
2023/08/24 02:08:35;;;;;;;;;;;;;;;;;;5044882;28;19978;-60
2023/08/24 02:11:01;;;;;;;;;;;;;;;;;;5049080;28;19920;-60
2023/08/24 02:13:27;;;;;;;;;;;;;;;;;;5056468;28;19959;-60
2023/08/24 02:15:52;;;;;;;;;;;;;;;;;;5038664;28;19929;-60
2023/08/24 02:18:18;;;;;;;;;;;;;;;;;;5048976;28;20355;-60
2023/08/24 02:20:44;;;;;;;;;;;;;;;;;;5061170;28;19967;-60
2023/08/24 02:23:10;;;;;;;;;;;;;;;;;;5048232;28;19975;-60
2023/08/24 02:25:36;;;;;;;;;;;;;;;;;;5065723;28;20393;-60
2023/08/24 02:28:02;;;;;;;;;;;;;;;;;;5042383;28;19983;-60
2023/08/24 02:30:28;;;;;;;;;;;;;;;;;;5063669;28;19924;-60
2023/08/24 02:32:54;;;;;;;;;;;;;;;;;;5059200;28;19991;-60
2023/08/24 02:35:20;;;;;;;;;;;;;;;;;;5045140;28;19932;-60
2023/08/24 02:37:46;;;;;;;;;;;;;;;;;;5040059;28;19935;-60
2023/08/24 02:40:11;;;;;;;;;;;;;;;;;;5044763;28;20201;-60
2023/08/24 02:42:37;;;;;;;;;;;;;;;;;;5036755;28;20011;-60
2023/08/24 02:45:04;;;;;;;;;;;;;;;;;;5045219;28;19921;-60
2023/08/24 02:47:30;;;;;;;;;;;;;;;;;;5025388;28;19920;-60
2023/08/24 02:49:55;;;;;;;;;;;;;;;;;;5039962;28;19928;-60
2023/08/24 02:52:21;;;;;;;;;;;;;;;;;;5017120;28;19921;-60
2023/08/24 02:54:47;;;;;;;;;;;;;;;;;;5037998;28;19925;-60
2023/08/24 02:57:13;;;;;;;;;;;;;;;;;;5057347;28;20386;-60
2023/08/24 02:59:39;;;;;;;;;;;;;;;;;;5038805;28;19928;-60
2023/08/24 03:02:05;;;;;;;;;;;;;;;;;;5037846;28;19924;-60
2023/08/24 03:04:31;;;;;;;;;;;;;;;;;;5045453;28;20375;-60
2023/08/24 03:06:57;;;;;;;;;;;;;;;;;;5045539;28;19921;-60
2023/08/24 03:09:23;;;;;;;;;;;;;;;;;;5047988;28;20282;-60
2023/08/24 03:11:49;;;;;;;;;;;;;;;;;;5050925;28;19921;-60
2023/08/24 03:14:15;;;;;;;;;;;;;;;;;;5032217;28;19925;-60
2023/08/24 03:16:40;;;;;;;;;;;;;;;;;;5031470;28;20444;-60
2023/08/24 03:19:07;;;;;;;;;;;;;;;;;;5050053;28;20298;-60
2023/08/24 03:21:33;;;;;;;;;;;;;;;;;;5031587;28;19935;-60
2023/08/24 03:23:59;;;;;;;;;;;;;;;;;;5049048;28;19928;-60
2023/08/24 03:26:24;;;;;;;;;;;;;;;;;;5040086;28;19921;-60
2023/08/24 03:28:51;;;;;;;;;;;;;;;;;;5049763;28;19920;-60
2023/08/24 03:31:16;;;;;;;;;;;;;;;;;;5028576;28;19928;-60
2023/08/24 03:33:42;;;;;;;;;;;;;;;;;;5051117;28;19935;-60
2023/08/24 03:36:08;;;;;;;;;;;;;;;;;;5033401;28;19921;-60
2023/08/24 03:38:34;;;;;;;;;;;;;;;;;;5049461;28;20012;-60
2023/08/24 03:41:00;;;;;;;;;;;;;;;;;;5040346;28;19971;-60
2023/08/24 03:43:26;;;;;;;;;;;;;;;;;;5046532;28;20331;-60
2023/08/24 03:45:52;;;;;;;;;;;;;;;;;;5029614;28;19979;-60
2023/08/24 03:48:18;;;;;;;;;;;;;;;;;;5046961;28;19920;-60
2023/08/24 03:50:44;;;;;;;;;;;;;;;;;;5051544;28;20302;-60
2023/08/24 03:53:10;;;;;;;;;;;;;;;;;;5031848;28;20438;-60
2023/08/24 03:55:36;;;;;;;;;;;;;;;;;;5038413;28;19921;-61
2023/08/24 03:58:02;;;;;;;;;;;;;;;;;;5037469;28;19925;-61
2023/08/24 04:00:28;;;;;;;;;;;;;;;;;;5044162;28;20359;-61
2023/08/24 04:02:54;;;;;;;;;;;;;;;;;;5033577;28;19925;-61
2023/08/24 04:05:20;;;;;;;;;;;;;;;;;;5046498;28;19994;-60
2023/08/24 04:07:46;;;;;;;;;;;;;;;;;;5050880;28;19974;-61
2023/08/24 04:10:11;;;;;;;;;;;;;;;;;;5049622;28;19925;-61
2023/08/24 04:12:37;;;;;;;;;;;;;;;;;;5034923;28;19921;-61
2023/08/24 04:15:04;;;;;;;;;;;;;;;;;;5052311;28;19925;-61
2023/08/24 04:17:30;;;;;;;;;;;;;;;;;;5065883;28;19924;-61
2023/08/24 04:19:56;;;;;;;;;;;;;;;;;;5031184;28;19946;-61
2023/08/24 04:22:22;;;;;;;;;;;;;;;;;;5049910;28;19929;-61
2023/08/24 04:24:48;;;;;;;;;;;;;;;;;;5041830;28;19929;-61
2023/08/24 04:27:14;;;;;;;;;;;;;;;;;;5052512;28;19921;-61
2023/08/24 04:29:40;;;;;;;;;;;;;;;;;;5048329;28;20262;-61
2023/08/24 04:32:06;;;;;;;;;;;;;;;;;;5054519;28;19925;-61
2023/08/24 04:34:32;;;;;;;;;;;;;;;;;;5042620;28;20042;-60
2023/08/24 04:39:30;;;;;;;;;;;;;;;;;;5049700;28;20429;-64
2023/08/24 04:41:56;;;;;;;;;;;;;;;;;;5054432;28;20007;-64
2023/08/24 04:44:22;;;;;;;;;;;;;;;;;;5052543;28;20335;-64
2023/08/24 04:46:49;;;;;;;;;;;;;;;;;;5049471;28;19921;-64
2023/08/24 04:49:14;;;;;;;;;;;;;;;;;;5053444;28;20027;-64
2023/08/24 04:51:40;;;;;;;;;;;;;;;;;;5052413;28;20020;-63
2023/08/24 04:54:06;;;;;;;;;;;;;;;;;;5053320;28;19921;-63
2023/08/24 04:56:32;;;;;;;;;;;;;;;;;;5054048;28;20378;-63
2023/08/24 04:59:00;;;;;;;;;;;;;;;;;;5054588;28;19925;-63
2023/08/24 05:01:26;;;;;;;;;;;;;;;;;;5053887;28;20366;-63
2023/08/24 05:03:52;;;;;;;;;;;;;;;;;;5054638;28;19931;-63
2023/08/24 05:06:18;;;;;;;;;;;;;;;;;;5051942;28;19921;-63
2023/08/24 05:08:44;;;;;;;;;;;;;;;;;;5046709;28;20003;-63
2023/08/24 05:11:09;;;;;;;;;;;;;;;;;;5040739;28;20370;-63
2023/08/24 05:13:35;;;;;;;;;;;;;;;;;;5049352;28;19927;-64
2023/08/24 05:16:01;;;;;;;;;;;;;;;;;;5053966;28;20401;-64
2023/08/24 05:18:27;;;;;;;;;;;;;;;;;;5053503;28;19920;-64
2023/08/24 05:20:53;;;;;;;;;;;;;;;;;;5051475;28;19921;-64
2023/08/24 05:23:19;;;;;;;;;;;;;;;;;;5051117;28;19936;-64
2023/08/24 05:25:45;;;;;;;;;;;;;;;;;;5051050;28;19920;-63
2023/08/24 05:28:11;;;;;;;;;;;;;;;;;;5049773;28;20302;-64
2023/08/24 05:30:37;;;;;;;;;;;;;;;;;;5053689;28;19925;-64
2023/08/24 05:33:03;;;;;;;;;;;;;;;;;;5027936;28;20086;-63
2023/08/24 05:35:29;;;;;;;;;;;;;;;;;;5054223;28;19921;-64
2023/08/24 05:37:55;;;;;;;;;;;;;;;;;;5050038;28;19924;-64
2023/08/24 05:40:21;;;;;;;;;;;;;;;;;;5053326;28;20394;-64
2023/08/24 05:42:46;;;;;;;;;;;;;;;;;;5050447;28;19976;-64
2023/08/24 05:45:12;;;;;;;;;;;;;;;;;;5051896;28;19928;-64
2023/08/24 05:47:38;;;;;;;;;;;;;;;;;;5052120;28;19989;-64
2023/08/24 05:50:04;;;;;;;;;;;;;;;;;;5052298;28;20055;-63
2023/08/24 05:52:30;;;;;;;;;;;;;;;;;;5046348;28;20023;-64
2023/08/24 05:54:56;;;;;;;;;;;;;;;;;;5050537;28;19975;-64
2023/08/24 05:57:22;;;;;;;;;;;;;;;;;;5052526;28;19924;-64
2023/08/24 05:59:48;;;;;;;;;;;;;;;;;;5051244;28;20340;-64
2023/08/24 06:02:14;;;;;;;;;;;;;;;;;;5052033;28;19933;-64
2023/08/24 06:04:40;;;;;;;;;;;;;;;;;;5050412;28;20046;-64
2023/08/24 06:07:06;;;;;;;;;;;;;;;;;;5050959;28;19921;-64
2023/08/24 06:09:32;;;;;;;;;;;;;;;;;;5033562;28;19925;-64
2023/08/24 06:11:58;;;;;;;;;;;;;;;;;;5050658;28;20031;-64
2023/08/24 06:14:24;;;;;;;;;;;;;;;;;;5049892;28;19924;-64
2023/08/24 06:16:53;;;;;;;;;;;;;;;;;;5050598;28;19974;-64
2023/08/24 06:19:18;;;;;;;;;;;;;;;;;;5051246;28;20009;-64
2023/08/24 06:21:44;;;;;;;;;;;;;;;;;;5050310;28;19932;-65
2023/08/24 06:24:10;;;;;;;;;;;;;;;;;;5028661;28;19921;-64
2023/08/24 06:26:36;;;;;;;;;;;;;;;;;;5047309;28;19937;-64
2023/08/24 06:29:02;;;;;;;;;;;;;;;;;;5049605;28;19955;-64
2023/08/24 06:31:31;;;;;;;;;;;;;;;;;;5049564;28;20247;-64
2023/08/24 06:33:57;;;;;;;;;;;;;;;;;;5051228;28;19921;-65
2023/08/24 06:36:22;;;;;;;;;;;;;;;;;;5056594;28;20263;-65
2023/08/24 06:38:48;;;;;;;;;;;;;;;;;;5046690;28;20392;-65
2023/08/24 06:41:14;;;;;;;;;;;;;;;;;;5030263;28;19929;-65
2023/08/24 06:43:40;;;;;;;;;;;;;;;;;;5029326;28;20040;-64
2023/08/24 06:46:09;;;;;;;;;;;;;;;;;;5027144;28;19928;-63
2023/08/24 06:48:35;;;;;;;;;;;;;;;;;;5024268;28;20071;-62
2023/08/24 06:51:01;;;;;;;;;;;;;;;;;;5025116;28;20019;-62
2023/08/24 06:53:27;;;;;;;;;;;;;;;;;;5026443;28;19971;-63
2023/08/24 06:55:53;;;;;;;;;;;;;;;;;;5027064;28;19921;-63
2023/08/24 06:58:18;;;;;;;;;;;;;;;;;;5029380;28;20367;-63
2023/08/24 07:00:44;;;;;;;;;;;;;;;;;;5020181;28;20060;-62
2023/08/24 07:03:10;;;;;;;;;;;;;;;;;;5029093;28;19929;-62
2023/08/24 07:05:36;;;;;;;;;;;;;;;;;;5029253;28;19921;-62
2023/08/24 07:08:03;;;;;;;;;;;;;;;;;;5028871;28;19921;-64
2023/08/24 07:10:29;;;;;;;;;;;;;;;;;;5028171;28;19924;-63
2023/08/24 07:12:55;;;;;;;;;;;;;;;;;;5029702;28;20036;-63
2023/08/24 07:15:20;;;;;;;;;;;;;;;;;;5026062;28;19928;-63
2023/08/24 07:17:46;;;;;;;;;;;;;;;;;;5026158;28;19944;-63
2023/08/24 07:20:13;;;;;;;;;;;;;;;;;;5031166;28;19932;-63
2023/08/24 07:22:39;;;;;;;;;;;;;;;;;;5029402;28;20371;-63
2023/08/24 07:25:05;;;;;;;;;;;;;;;;;;5029178;28;19931;-63
2023/08/24 07:27:31;;;;;;;;;;;;;;;;;;5029941;28;20263;-63
2023/08/24 07:29:57;;;;;;;;;;;;;;;;;;5028371;28;19928;-64
2023/08/24 07:32:23;;;;;;;;;;;;;;;;;;5028553;28;19921;-63
2023/08/24 07:34:49;;;;;;;;;;;;;;;;;;5028395;28;20003;-64
2023/08/24 07:37:15;;;;;;;;;;;;;;;;;;5031137;28;19921;-64
2023/08/24 07:39:41;;;;;;;;;;;;;;;;;;5048995;28;19928;-63
2023/08/24 07:42:07;;;;;;;;;;;;;;;;;;5048103;28;19955;-63
2023/08/24 07:44:33;;;;;;;;;;;;;;;;;;5050727;28;19978;-63
2023/08/24 07:46:59;;;;;;;;;;;;;;;;;;5031256;28;19921;-63
2023/08/24 07:49:25;;;;;;;;;;;;;;;;;;5049444;28;19928;-63
2023/08/24 07:51:50;;;;;;;;;;;;;;;;;;5051106;28;19998;-63
2023/08/24 07:54:16;;;;;;;;;;;;;;;;;;5048969;28;19924;-63
2023/08/24 07:56:42;;;;;;;;;;;;;;;;;;5047219;28;20290;-64
2023/08/24 07:59:08;;;;;;;;;;;;;;;;;;5047359;28;20000;-63
2023/08/24 08:01:34;;;;;;;;;;;;;;;;;;5045955;28;19967;-63
2023/08/24 08:04:00;;;;;;;;;;;;;;;;;;5042131;28;19982;-63
2023/08/24 08:06:26;;;;;;;;;;;;;;;;;;5051781;28;20270;-62
2023/08/24 08:08:52;;;;;;;;;;;;;;;;;;5050618;28;19975;-60
2023/08/24 08:11:18;;;;;;;;;;;;;;;;;;5047010;28;19925;-60
2023/08/24 08:13:44;;;;;;;;;;;;;;;;;;5033334;28;19947;-60
2023/08/24 08:16:10;;;;;;;;;;;;;;;;;;5049532;28;19928;-60
2023/08/24 08:18:36;;;;;;;;;;;;;;;;;;5050571;28;19921;-60
2023/08/24 08:21:03;;;;;;;;;;;;;;;;;;5039100;28;19932;-60
2023/08/24 08:23:29;;;;;;;;;;;;;;;;;;5048441;28;19929;-60
2023/08/24 08:25:55;;;;;;;;;;;;;;;;;;5048196;28;20370;-60
2023/08/24 08:28:21;;;;;;;;;;;;;;;;;;5051452;28;20051;-60
2023/08/24 08:30:47;;;;;;;;;;;;;;;;;;5050635;28;19921;-60
2023/08/24 08:33:13;;;;;;;;;;;;;;;;;;5054237;28;19928;-60
2023/08/24 08:35:39;;;;;;;;;;;;;;;;;;5052409;28;19924;-60
2023/08/24 08:38:05;;;;;;;;;;;;;;;;;;5047982;28;19939;-60
2023/08/24 08:40:31;;;;;;;;;;;;;;;;;;5034320;28;20469;-60
2023/08/24 08:42:56;;;;;;;;;;;;;;;;;;5053725;28;19925;-59
2023/08/24 08:45:22;;;;;;;;;;;;;;;;;;5051474;28;20354;-59
2023/08/24 08:47:48;;;;;;;;;;;;;;;;;;5052907;28;19921;-59
2023/08/24 08:50:14;;;;;;;;;;;;;;;;;;5053702;28;19925;-59
2023/08/24 08:52:40;;;;;;;;;;;;;;;;;;5054250;28;19929;-59
2023/08/24 08:55:09;;;;;;;;;;;;;;;;;;5053318;28;19925;-59
2023/08/24 08:57:34;;;;;;;;;;;;;;;;;;5053125;28;19929;-60
2023/08/24 09:00:00;;;;;;;;;;;;;;;;;;5033462;28;19927;-61
2023/08/24 09:02:26;;;;;;;;;;;;;;;;;;5051499;28;19929;-60
2023/08/24 09:04:52;;;;;;;;;;;;;;;;;;5051005;28;19921;-61
2023/08/24 09:07:18;;;;;;;;;;;;;;;;;;5053431;28;20035;-60
2023/08/24 09:09:44;;;;;;;;;;;;;;;;;;5035268;28;19925;-60
2023/08/24 09:12:10;;;;;;;;;;;;;;;;;;5051528;28;19921;-60
2023/08/24 09:14:36;;;;;;;;;;;;;;;;;;5032158;28;19921;-59
2023/08/24 09:17:03;;;;;;;;;;;;;;;;;;5053054;28;19925;-60
2023/08/24 09:19:29;;;;;;;;;;;;;;;;;;5053608;28;19927;-60
2023/08/24 09:21:55;;;;;;;;;;;;;;;;;;5048562;28;20031;-61
2023/08/24 09:24:21;;;;;;;;;;;;;;;;;;5049013;28;20043;-60
2023/08/24 09:26:47;;;;;;;;;;;;;;;;;;5030481;28;19920;-60
2023/08/24 09:29:13;;;;;;;;;;;;;;;;;;5051088;28;19920;-60
2023/08/24 09:31:39;;;;;;;;;;;;;;;;;;5052004;28;20286;-61
2023/08/24 09:34:05;;;;;;;;;;;;;;;;;;5052833;28;20615;-61
2023/08/24 09:36:31;;;;;;;;;;;;;;;;;;5046356;28;19967;-61
2023/08/24 09:38:57;;;;;;;;;;;;;;;;;;5052655;28;19951;-61
2023/08/24 09:41:23;;;;;;;;;;;;;;;;;;5050269;28;20334;-60
2023/08/24 09:43:49;;;;;;;;;;;;;;;;;;5032301;28;19925;-61
2023/08/24 09:46:15;;;;;;;;;;;;;;;;;;5048751;28;20039;-61
2023/08/24 09:48:41;;;;;;;;;;;;;;;;;;5020166;28;19948;-61
2023/08/24 09:51:07;;;;;;;;;;;;;;;;;;5042498;28;19929;-62
2023/08/24 09:53:33;;;;;;;;;;;;;;;;;;5055411;28;19925;-61
2023/08/24 09:55:59;;;;;;;;;;;;;;;;;;5045713;28;21375;-62
2023/08/24 09:58:25;;;;;;;;;;;;;;;;;;5032813;28;20015;-61
2023/08/24 10:00:51;;;;;;;;;;;;;;;;;;5041993;28;20358;-62
2023/08/24 10:03:18;;;;;;;;;;;;;;;;;;5048347;28;19924;-61
2023/08/24 10:05:44;;;;;;;;;;;;;;;;;;5033508;28;20382;-62
2023/08/24 10:08:10;;;;;;;;;;;;;;;;;;5044948;28;19928;-61
2023/08/24 10:10:36;;;;;;;;;;;;;;;;;;5049006;28;19929;-62
2023/08/24 10:13:03;;;;;;;;;;;;;;;;;;5043651;28;21547;-61
2023/08/24 10:15:29;;;;;;;;;;;;;;;;;;5048064;28;19921;-61
2023/08/24 10:17:55;;;;;;;;;;;;;;;;;;5048302;28;19935;-61
2023/08/24 10:20:21;;;;;;;;;;;;;;;;;;5029155;28;19953;-63
2023/08/24 10:22:48;;;;;;;;;;;;;;;;;;5041052;28;19967;-68
2023/08/24 10:25:14;;;;;;;;;;;;;;;;;;5026147;28;19921;-62
2023/08/24 10:27:43;;;;;;;;;;;;;;;;;;5041026;28;19929;-62
2023/08/24 10:30:09;;;;;;;;;;;;;;;;;;5044286;28;19935;-63
2023/08/24 10:32:36;;;;;;;;;;;;;;;;;;5020921;28;20436;-62
2023/08/24 10:35:02;;;;;;;;;;;;;;;;;;5043042;28;19921;-62
2023/08/24 10:37:28;;;;;;;;;;;;;;;;;;5047555;28;19929;-63
2023/08/24 10:39:54;;;;;;;;;;;;;;;;;;5050241;28;19924;-62
2023/08/24 10:42:21;;;;;;;;;;;;;;;;;;5045794;28;19931;-62
2023/08/24 10:44:47;;;;;;;;;;;;;;;;;;5048669;28;19931;-62
2023/08/24 10:47:13;;;;;;;;;;;;;;;;;;5051660;28;19929;-62
2023/08/24 10:49:39;;;;;;;;;;;;;;;;;;5051985;28;19921;-62
2023/08/24 10:52:05;;;;;;;;;;;;;;;;;;5052271;28;19925;-62
2023/08/24 10:54:32;;;;;;;;;;;;;;;;;;5051863;28;19929;-63
2023/08/24 10:56:58;;;;;;;;;;;;;;;;;;5049412;28;20377;-62
2023/08/24 10:59:24;;;;;;;;;;;;;;;;;;5033868;28;19924;-62
2023/08/24 11:01:50;;;;;;;;;;;;;;;;;;5051351;28;19929;-62
2023/08/24 11:04:18;;;;;;;;;;;;;;;;;;5045838;28;21269;-62
2023/08/24 11:06:43;;;;;;;;;;;;;;;;;;5044080;28;19920;-62
2023/08/24 11:09:13;;;;;;;;;;;;;;;;;;5048895;28;19929;-62
2023/08/24 11:11:39;;;;;;;;;;;;;;;;;;5048035;28;19929;-62
2023/08/24 11:14:05;;;;;;;;;;;;;;;;;;5051469;28;19947;-62
2023/08/24 11:16:31;;;;;;;;;;;;;;;;;;5048855;28;19927;-62
2023/08/24 11:18:57;;;;;;;;;;;;;;;;;;5049681;28;20003;-62
2023/08/24 11:21:23;;;;;;;;;;;;;;;;;;5049705;28;20253;-62
2023/08/24 11:23:49;;;;;;;;;;;;;;;;;;5048882;28;19921;-62
2023/08/24 11:26:14;;;;;;;;;;;;;;;;;;5048374;28;19921;-62
2023/08/24 11:28:40;;;;;;;;;;;;;;;;;;5047720;28;20251;-62
2023/08/24 11:31:07;;;;;;;;;;;;;;;;;;5045831;28;19925;-62
2023/08/24 11:33:33;;;;;;;;;;;;;;;;;;5044287;28;20333;-62
2023/08/24 11:35:59;;;;;;;;;;;;;;;;;;5045208;28;20007;-62
2023/08/24 11:38:24;;;;;;;;;;;;;;;;;;5043289;28;19933;-61
2023/08/24 11:40:50;;;;;;;;;;;;;;;;;;5049845;28;20007;-61
2023/08/24 11:43:16;;;;;;;;;;;;;;;;;;5051441;28;19963;-62
2023/08/24 11:45:42;;;;;;;;;;;;;;;;;;5050679;28;20394;-62
2023/08/24 11:48:09;;;;;;;;;;;;;;;;;;5051689;28;19999;-62
2023/08/24 11:50:35;;;;;;;;;;;;;;;;;;5050592;28;19947;-62
2023/08/24 11:53:01;;;;;;;;;;;;;;;;;;5048606;28;20664;-62
2023/08/24 11:55:27;;;;;;;;;;;;;;;;;;5032400;28;20393;-62
2023/08/24 11:57:52;;;;;;;;;;;;;;;;;;5051336;28;19921;-61
2023/08/24 12:00:18;;;;;;;;;;;;;;;;;;5049678;28;19925;-62
2023/08/24 12:02:44;;;;;;;;;;;;;;;;;;5051514;28;20382;-62
2023/08/24 12:05:10;;;;;;;;;;;;;;;;;;5050151;28;19925;-62
2023/08/24 12:07:36;;;;;;;;;;;;;;;;;;5050608;28;20013;-62
2023/08/24 12:10:02;;;;;;;;;;;;;;;;;;5049353;28;19932;-62
2023/08/24 12:12:28;;;;;;;;;;;;;;;;;;5050774;28;19925;-61
2023/08/24 12:14:54;;;;;;;;;;;;;;;;;;5049745;28;19927;-62
2023/08/24 12:17:20;;;;;;;;;;;;;;;;;;5050559;28;19924;-61
2023/08/24 12:19:46;;;;;;;;;;;;;;;;;;5050116;28;19986;-61
2023/08/24 12:22:12;;;;;;;;;;;;;;;;;;5033107;28;19935;-62
2023/08/24 12:24:37;;;;;;;;;;;;;;;;;;5050527;28;19964;-62
2023/08/24 12:27:03;;;;;;;;;;;;;;;;;;5031351;28;19929;-61
2023/08/24 12:29:29;;;;;;;;;;;;;;;;;;5047987;28;19921;-62
2023/08/24 12:31:55;;;;;;;;;;;;;;;;;;5050414;28;19978;-61
2023/08/24 12:34:21;;;;;;;;;;;;;;;;;;5051009;28;19933;-62
2023/08/24 12:36:47;;;;;;;;;;;;;;;;;;5031721;28;19925;-62
2023/08/24 12:39:13;;;;;;;;;;;;;;;;;;5032854;28;19925;-62
2023/08/24 12:41:39;;;;;;;;;;;;;;;;;;5049143;28;19998;-61
2023/08/24 12:44:05;;;;;;;;;;;;;;;;;;5033115;28;19928;-61
2023/08/24 12:46:31;;;;;;;;;;;;;;;;;;5050346;28;19928;-61
2023/08/24 12:48:57;;;;;;;;;;;;;;;;;;5053357;28;19921;-61
2023/08/24 12:51:24;;;;;;;;;;;;;;;;;;5053749;28;19925;-61
2023/08/24 12:53:50;;;;;;;;;;;;;;;;;;5054478;28;20331;-61
2023/08/24 12:56:16;;;;;;;;;;;;;;;;;;5053562;28;19920;-61
2023/08/24 12:58:42;;;;;;;;;;;;;;;;;;5048331;28;19929;-61
2023/08/24 13:01:08;;;;;;;;;;;;;;;;;;5053051;28;19921;-61
2023/08/24 13:03:35;;;;;;;;;;;;;;;;;;5067297;28;19932;-61
2023/08/24 13:06:01;;;;;;;;;;;;;;;;;;5054222;28;19983;-61
2023/08/24 13:08:27;;;;;;;;;;;;;;;;;;5053279;28;20321;-61
2023/08/24 13:10:53;;;;;;;;;;;;;;;;;;5036055;28;19924;-61
2023/08/24 13:13:20;;;;;;;;;;;;;;;;;;5018941;28;19920;-61
2023/08/24 13:15:46;;;;;;;;;;;;;;;;;;5035457;28;19924;-61
2023/08/24 13:18:12;;;;;;;;;;;;;;;;;;5039712;28;20420;-61
2023/08/24 13:20:38;;;;;;;;;;;;;;;;;;5046473;28;19936;-61
2023/08/24 13:23:04;;;;;;;;;;;;;;;;;;5045643;28;19932;-61
2023/08/24 13:25:30;;;;;;;;;;;;;;;;;;5048308;28;20271;-61
2023/08/24 13:27:56;;;;;;;;;;;;;;;;;;5033089;28;19921;-61
2023/08/24 13:30:22;;;;;;;;;;;;;;;;;;5046941;28;19929;-61
2023/08/24 13:32:48;;;;;;;;;;;;;;;;;;5044097;28;19927;-61
2023/08/24 13:35:14;;;;;;;;;;;;;;;;;;5048267;28;20271;-61
2023/08/24 13:37:39;;;;;;;;;;;;;;;;;;5045181;28;19925;-62
2023/08/24 13:40:07;;;;;;;;;;;;;;;;;;5049648;28;19964;-61
2023/08/24 13:42:33;;;;;;;;;;;;;;;;;;5030614;28;19933;-61
2023/08/24 13:44:59;;;;;;;;;;;;;;;;;;5045422;28;20023;-61
2023/08/24 13:47:25;;;;;;;;;;;;;;;;;;5047694;28;20611;-61
2023/08/24 13:49:51;;;;;;;;;;;;;;;;;;5044231;28;19924;-61
2023/08/24 13:52:18;;;;;;;;;;;;;;;;;;5041914;28;20013;-61
2023/08/24 13:54:44;;;;;;;;;;;;;;;;;;5045892;28;19933;-61
2023/08/24 13:57:10;;;;;;;;;;;;;;;;;;5043284;28;19920;-61
2023/08/24 13:59:36;;;;;;;;;;;;;;;;;;5032947;28;20007;-61
2023/08/24 14:02:03;;;;;;;;;;;;;;;;;;5047497;28;19955;-61
2023/08/24 14:04:29;;;;;;;;;;;;;;;;;;5046940;28;19928;-61
2023/08/24 14:06:55;;;;;;;;;;;;;;;;;;5048967;28;19925;-61
2023/08/24 14:09:21;;;;;;;;;;;;;;;;;;5046487;28;19924;-61
2023/08/24 14:11:47;;;;;;;;;;;;;;;;;;5047548;28;19920;-61
2023/08/24 14:14:13;;;;;;;;;;;;;;;;;;5044910;28;19943;-61
2023/08/24 14:16:39;;;;;;;;;;;;;;;;;;5049092;28;19999;-61
2023/08/24 14:19:05;;;;;;;;;;;;;;;;;;5046343;28;19932;-61
2023/08/24 14:21:31;;;;;;;;;;;;;;;;;;5029753;28;19925;-61
2023/08/24 14:23:57;;;;;;;;;;;;;;;;;;5045121;28;19971;-61
2023/08/24 14:26:23;;;;;;;;;;;;;;;;;;5050568;28;20330;-61
2023/08/24 14:28:53;;;;;;;;;;;;;;;;;;5049283;28;20521;-61
2023/08/24 14:31:19;;;;;;;;;;;;;;;;;;5047006;28;19924;-61
2023/08/24 14:33:45;;;;;;;;;;;;;;;;;;5051961;28;20363;-61
2023/08/24 14:36:11;;;;;;;;;;;;;;;;;;5044609;28;20012;-61
2023/08/24 14:38:37;;;;;;;;;;;;;;;;;;5047957;28;20042;-61
2023/08/24 14:41:03;;;;;;;;;;;;;;;;;;5042776;28;20938;-61
2023/08/24 14:43:29;;;;;;;;;;;;;;;;;;5050362;28;19928;-61
2023/08/24 14:45:55;;;;;;;;;;;;;;;;;;5047695;28;19924;-61
2023/08/24 14:48:21;;;;;;;;;;;;;;;;;;5049447;28;19989;-61
2023/08/24 14:50:47;;;;;;;;;;;;;;;;;;5048723;28;19925;-61
2023/08/24 14:53:13;;;;;;;;;;;;;;;;;;5063451;22;19924;-61
2023/08/24 14:55:39;;;;;;;;;;;;;;;;;;5067611;28;19971;-61
2023/08/24 14:58:05;;;;;;;;;;;;;;;;;;5065886;28;19935;-61
2023/08/24 15:00:30;;;;;;;;;;;;;;;;;;5069028;28;19924;-61
2023/08/24 15:02:56;;;;;;;;;;;;;;;;;;5069729;28;19932;-61
2023/08/24 15:05:22;;;;;;;;;;;;;;;;;;5053208;28;20007;-61
2023/08/24 15:07:48;;;;;;;;;;;;;;;;;;5071081;28;20034;-61
2023/08/24 15:10:14;;;;;;;;;;;;;;;;;;5050784;28;19924;-61
2023/08/24 15:12:40;;;;;;;;;;;;;;;;;;5056528;28;19928;-61
2023/08/24 15:15:06;;;;;;;;;;;;;;;;;;5068499;28;20274;-61
2023/08/24 15:17:32;;;;;;;;;;;;;;;;;;5069763;28;19926;-61
2023/08/24 15:19:58;;;;;;;;;;;;;;;;;;5071639;28;20019;-61
2023/08/24 15:22:25;;;;;;;;;;;;;;;;;;5068652;28;19980;-61
2023/08/24 15:24:51;;;;;;;;;;;;;;;;;;5069528;28;20037;-61
2023/08/24 15:27:18;;;;;;;;;;;;;;;;;;5066943;28;20361;-61
2023/08/24 15:29:44;;;;;;;;;;;;;;;;;;5066813;28;19921;-61
2023/08/24 15:32:10;;;;;;;;;;;;;;;;;;5047305;28;19943;-61
2023/08/24 15:34:36;;;;;;;;;;;;;;;;;;5066256;28;20061;-61
2023/08/24 15:37:02;;;;;;;;;;;;;;;;;;5069099;28;19967;-61
2023/08/24 15:39:28;;;;;;;;;;;;;;;;;;5067739;28;19924;-61
2023/08/24 15:41:53;;;;;;;;;;;;;;;;;;5060871;28;20277;-61
2023/08/24 15:44:19;;;;;;;;;;;;;;;;;;5068639;28;19931;-61
2023/08/24 15:46:45;;;;;;;;;;;;;;;;;;5063056;28;19929;-61
2023/08/24 15:49:11;;;;;;;;;;;;;;;;;;5065996;28;19970;-61
2023/08/24 15:51:37;;;;;;;;;;;;;;;;;;5065981;28;19971;-61
2023/08/24 15:54:03;;;;;;;;;;;;;;;;;;5050979;28;20342;-61
2023/08/24 15:56:30;;;;;;;;;;;;;;;;;;5065299;28;19920;-61
2023/08/24 15:58:56;;;;;;;;;;;;;;;;;;5063307;28;19928;-61
2023/08/24 16:01:22;;;;;;;;;;;;;;;;;;5061451;28;19920;-61
2023/08/24 16:03:47;;;;;;;;;;;;;;;;;;5043934;28;20015;-61
2023/08/24 16:06:13;;;;;;;;;;;;;;;;;;5066488;28;19920;-61
2023/08/24 16:08:39;;;;;;;;;;;;;;;;;;5067900;28;20431;-61
2023/08/24 16:11:05;;;;;;;;;;;;;;;;;;5068448;28;19920;-61
2023/08/24 16:13:31;;;;;;;;;;;;;;;;;;5085101;28;20289;-61
2023/08/24 16:15:57;;;;;;;;;;;;;;;;;;5065944;28;19924;-61
2023/08/24 16:18:24;;;;;;;;;;;;;;;;;;5065261;28;19970;-61
2023/08/24 16:20:50;;;;;;;;;;;;;;;;;;5069559;28;19920;-61
2023/08/24 16:23:16;;;;;;;;;;;;;;;;;;5056801;28;19933;-61
2023/08/24 16:25:41;;;;;;;;;;;;;;;;;;5056508;28;19973;-61
2023/08/24 16:28:07;;;;;;;;;;;;;;;;;;5068756;28;19920;-61
2023/08/24 16:30:34;;;;;;;;;;;;;;;;;;5047032;28;19995;-61
2023/08/24 16:33:00;;;;;;;;;;;;;;;;;;5065957;28;20396;-61
2023/08/24 16:35:26;;;;;;;;;;;;;;;;;;5060832;28;19929;-61
2023/08/24 16:37:51;;;;;;;;;;;;;;;;;;5057727;28;19920;-61
2023/08/24 16:40:17;;;;;;;;;;;;;;;;;;5070125;28;19920;-61